sensor_id;sensor_type;location;lat;lon;timestamp;P1;durP1;ratioP1;P2;durP2;ratioP2
35462;SDS011;21578;47.892;9.970;2023-03-01T00:03:07;15.50;;;11.37;;
35462;SDS011;21578;47.892;9.970;2023-03-01T00:07:53;15.73;;;11.80;;
35462;SDS011;21578;47.892;9.970;2023-03-01T00:12:42;20.53;;;12.80;;
35462;SDS011;21578;47.892;9.970;2023-03-01T00:17:29;15.77;;;11.17;;
35462;SDS011;21578;47.892;9.970;2023-03-01T00:22:15;17.10;;;11.63;;
35462;SDS011;21578;47.892;9.970;2023-03-01T00:27:02;16.03;;;11.90;;
35462;SDS011;21578;47.892;9.970;2023-03-01T00:31:51;17.47;;;11.40;;
35462;SDS011;21578;47.892;9.970;2023-03-01T00:36:38;16.00;;;10.83;;
35462;SDS011;21578;47.892;9.970;2023-03-01T00:41:25;14.23;;;10.60;;
35462;SDS011;21578;47.892;9.970;2023-03-01T00:46:13;16.77;;;11.33;;
35462;SDS011;21578;47.892;9.970;2023-03-01T00:51:06;15.97;;;10.90;;
35462;SDS011;21578;47.892;9.970;2023-03-01T00:55:53;16.43;;;11.53;;
35462;SDS011;21578;47.892;9.970;2023-03-01T01:00:43;16.50;;;11.70;;
35462;SDS011;21578;47.892;9.970;2023-03-01T01:05:30;15.87;;;10.83;;
35462;SDS011;21578;47.892;9.970;2023-03-01T01:10:18;17.17;;;11.47;;
35462;SDS011;21578;47.892;9.970;2023-03-01T01:15:05;16.93;;;11.23;;
35462;SDS011;21578;47.892;9.970;2023-03-01T01:19:53;15.73;;;10.97;;
35462;SDS011;21578;47.892;9.970;2023-03-01T01:24:40;16.67;;;12.00;;
35462;SDS011;21578;47.892;9.970;2023-03-01T01:29:28;15.77;;;10.90;;
35462;SDS011;21578;47.892;9.970;2023-03-01T01:34:16;15.20;;;11.80;;
35462;SDS011;21578;47.892;9.970;2023-03-01T01:39:03;17.70;;;12.00;;
35462;SDS011;21578;47.892;9.970;2023-03-01T01:48:59;23.83;;;13.90;;
35462;SDS011;21578;47.892;9.970;2023-03-01T01:53:51;17.37;;;11.60;;
35462;SDS011;21578;47.892;9.970;2023-03-01T01:58:42;15.80;;;11.87;;
35462;SDS011;21578;47.892;9.970;2023-03-01T02:03:31;16.43;;;11.70;;
35462;SDS011;21578;47.892;9.970;2023-03-01T02:08:25;17.23;;;12.23;;
35462;SDS011;21578;47.892;9.970;2023-03-01T02:13:15;16.07;;;11.80;;
35462;SDS011;21578;47.892;9.970;2023-03-01T02:18:02;14.83;;;10.83;;
35462;SDS011;21578;47.892;9.970;2023-03-01T02:22:50;16.77;;;11.77;;
35462;SDS011;21578;47.892;9.970;2023-03-01T02:27:44;17.87;;;11.57;;
35462;SDS011;21578;47.892;9.970;2023-03-01T02:32:41;16.37;;;12.10;;
35462;SDS011;21578;47.892;9.970;2023-03-01T02:37:28;15.83;;;11.23;;
35462;SDS011;21578;47.892;9.970;2023-03-01T02:42:15;16.87;;;11.73;;
35462;SDS011;21578;47.892;9.970;2023-03-01T02:47:07;18.57;;;12.03;;
35462;SDS011;21578;47.892;9.970;2023-03-01T02:57:09;15.53;;;11.43;;
35462;SDS011;21578;47.892;9.970;2023-03-01T03:01:56;16.50;;;11.73;;
35462;SDS011;21578;47.892;9.970;2023-03-01T03:06:43;16.40;;;11.23;;
35462;SDS011;21578;47.892;9.970;2023-03-01T03:11:32;17.53;;;11.63;;
35462;SDS011;21578;47.892;9.970;2023-03-01T03:16:19;16.80;;;11.93;;
35462;SDS011;21578;47.892;9.970;2023-03-01T03:21:07;18.57;;;12.13;;
35462;SDS011;21578;47.892;9.970;2023-03-01T03:25:56;17.87;;;11.97;;
35462;SDS011;21578;47.892;9.970;2023-03-01T03:30:44;17.00;;;11.40;;
35462;SDS011;21578;47.892;9.970;2023-03-01T03:35:34;19.10;;;12.93;;
35462;SDS011;21578;47.892;9.970;2023-03-01T03:40:24;18.83;;;13.27;;
35462;SDS011;21578;47.892;9.970;2023-03-01T03:45:11;17.30;;;10.57;;
35462;SDS011;21578;47.892;9.970;2023-03-01T03:50:00;18.43;;;12.87;;
35462;SDS011;21578;47.892;9.970;2023-03-01T03:54:46;16.67;;;12.20;;
35462;SDS011;21578;47.892;9.970;2023-03-01T03:59:33;19.40;;;12.57;;
35462;SDS011;21578;47.892;9.970;2023-03-01T04:04:20;15.67;;;10.67;;
35462;SDS011;21578;47.892;9.970;2023-03-01T04:09:08;18.83;;;12.40;;
35462;SDS011;21578;47.892;9.970;2023-03-01T04:13:56;17.90;;;12.20;;
35462;SDS011;21578;47.892;9.970;2023-03-01T04:18:45;18.60;;;12.13;;
35462;SDS011;21578;47.892;9.970;2023-03-01T04:23:32;20.30;;;13.10;;
35462;SDS011;21578;47.892;9.970;2023-03-01T04:28:21;16.83;;;11.77;;
35462;SDS011;21578;47.892;9.970;2023-03-01T04:33:10;19.93;;;12.63;;
35462;SDS011;21578;47.892;9.970;2023-03-01T04:37:57;18.37;;;12.93;;
35462;SDS011;21578;47.892;9.970;2023-03-01T04:42:44;16.97;;;11.07;;
35462;SDS011;21578;47.892;9.970;2023-03-01T04:47:33;15.30;;;8.80;;
35462;SDS011;21578;47.892;9.970;2023-03-01T04:52:23;18.93;;;12.50;;
35462;SDS011;21578;47.892;9.970;2023-03-01T04:57:10;16.83;;;12.43;;
35462;SDS011;21578;47.892;9.970;2023-03-01T05:01:56;20.70;;;13.03;;
35462;SDS011;21578;47.892;9.970;2023-03-01T05:06:46;19.10;;;12.50;;
35462;SDS011;21578;47.892;9.970;2023-03-01T05:11:33;18.00;;;11.93;;
35462;SDS011;21578;47.892;9.970;2023-03-01T05:16:20;17.90;;;11.83;;
35462;SDS011;21578;47.892;9.970;2023-03-01T05:21:08;30.47;;;16.23;;
35462;SDS011;21578;47.892;9.970;2023-03-01T05:25:59;30.63;;;18.23;;
35462;SDS011;21578;47.892;9.970;2023-03-01T05:30:47;22.60;;;13.67;;
35462;SDS011;21578;47.892;9.970;2023-03-01T05:35:36;19.37;;;12.97;;
35462;SDS011;21578;47.892;9.970;2023-03-01T05:40:23;36.63;;;19.50;;
35462;SDS011;21578;47.892;9.970;2023-03-01T05:45:12;48.87;;;25.60;;
35462;SDS011;21578;47.892;9.970;2023-03-01T05:50:00;23.40;;;15.27;;
35462;SDS011;21578;47.892;9.970;2023-03-01T05:54:46;20.53;;;13.47;;
35462;SDS011;21578;47.892;9.970;2023-03-01T05:59:34;19.10;;;12.00;;
35462;SDS011;21578;47.892;9.970;2023-03-01T06:04:23;21.10;;;13.37;;
35462;SDS011;21578;47.892;9.970;2023-03-01T06:09:10;20.47;;;14.00;;
35462;SDS011;21578;47.892;9.970;2023-03-01T06:13:56;20.17;;;13.37;;
35462;SDS011;21578;47.892;9.970;2023-03-01T06:18:43;18.73;;;11.87;;
35462;SDS011;21578;47.892;9.970;2023-03-01T06:23:32;19.00;;;12.73;;
35462;SDS011;21578;47.892;9.970;2023-03-01T06:28:19;21.23;;;13.57;;
35462;SDS011;21578;47.892;9.970;2023-03-01T06:33:06;19.47;;;12.30;;
35462;SDS011;21578;47.892;9.970;2023-03-01T06:37:53;19.83;;;12.77;;
35462;SDS011;21578;47.892;9.970;2023-03-01T06:42:42;17.93;;;12.37;;
35462;SDS011;21578;47.892;9.970;2023-03-01T06:47:33;18.77;;;13.27;;
35462;SDS011;21578;47.892;9.970;2023-03-01T06:52:20;19.23;;;12.70;;
35462;SDS011;21578;47.892;9.970;2023-03-01T06:57:07;18.53;;;13.07;;
35462;SDS011;21578;47.892;9.970;2023-03-01T07:01:55;30.27;;;18.30;;
35462;SDS011;21578;47.892;9.970;2023-03-01T07:06:42;18.70;;;13.40;;
35462;SDS011;21578;47.892;9.970;2023-03-01T07:11:29;14.37;;;10.10;;
35462;SDS011;21578;47.892;9.970;2023-03-01T07:16:16;20.30;;;12.33;;
35462;SDS011;21578;47.892;9.970;2023-03-01T07:21:05;19.23;;;12.10;;
35462;SDS011;21578;47.892;9.970;2023-03-01T07:25:52;19.93;;;12.97;;
35462;SDS011;21578;47.892;9.970;2023-03-01T07:30:40;18.03;;;12.20;;
35462;SDS011;21578;47.892;9.970;2023-03-01T07:35:27;18.23;;;12.30;;
35462;SDS011;21578;47.892;9.970;2023-03-01T07:40:15;16.83;;;11.23;;
35462;SDS011;21578;47.892;9.970;2023-03-01T07:45:03;15.53;;;11.80;;
35462;SDS011;21578;47.892;9.970;2023-03-01T07:49:51;15.97;;;11.77;;
35462;SDS011;21578;47.892;9.970;2023-03-01T07:54:38;18.27;;;13.07;;
35462;SDS011;21578;47.892;9.970;2023-03-01T07:59:26;16.13;;;11.43;;
35462;SDS011;21578;47.892;9.970;2023-03-01T08:04:14;16.77;;;12.13;;
35462;SDS011;21578;47.892;9.970;2023-03-01T08:09:01;20.43;;;12.73;;
35462;SDS011;21578;47.892;9.970;2023-03-01T08:13:48;16.87;;;12.67;;
35462;SDS011;21578;47.892;9.970;2023-03-01T08:18:37;16.97;;;12.40;;
35462;SDS011;21578;47.892;9.970;2023-03-01T08:23:24;18.77;;;13.10;;
35462;SDS011;21578;47.892;9.970;2023-03-01T08:28:12;25.40;;;16.77;;
35462;SDS011;21578;47.892;9.970;2023-03-01T08:32:59;17.90;;;12.63;;
35462;SDS011;21578;47.892;9.970;2023-03-01T08:37:47;20.83;;;12.67;;
35462;SDS011;21578;47.892;9.970;2023-03-01T08:42:34;17.27;;;10.83;;
35462;SDS011;21578;47.892;9.970;2023-03-01T08:47:21;17.40;;;12.40;;
35462;SDS011;21578;47.892;9.970;2023-03-01T08:52:07;18.40;;;12.77;;
35462;SDS011;21578;47.892;9.970;2023-03-01T08:56:56;20.60;;;13.80;;
35462;SDS011;21578;47.892;9.970;2023-03-01T09:01:44;23.07;;;14.47;;
35462;SDS011;21578;47.892;9.970;2023-03-01T09:06:31;17.67;;;13.33;;
35462;SDS011;21578;47.892;9.970;2023-03-01T09:11:20;25.57;;;15.43;;
35462;SDS011;21578;47.892;9.970;2023-03-01T09:16:10;18.87;;;13.67;;
35462;SDS011;21578;47.892;9.970;2023-03-01T09:21:01;19.53;;;13.00;;
35462;SDS011;21578;47.892;9.970;2023-03-01T09:25:52;24.03;;;14.97;;
35462;SDS011;21578;47.892;9.970;2023-03-01T09:30:39;18.23;;;12.53;;
35462;SDS011;21578;47.892;9.970;2023-03-01T09:35:27;26.40;;;14.53;;
35462;SDS011;21578;47.892;9.970;2023-03-01T09:40:14;18.37;;;13.03;;
35462;SDS011;21578;47.892;9.970;2023-03-01T09:45:04;20.03;;;13.77;;
35462;SDS011;21578;47.892;9.970;2023-03-01T09:49:56;20.43;;;13.40;;
35462;SDS011;21578;47.892;9.970;2023-03-01T09:54:49;19.33;;;13.50;;
35462;SDS011;21578;47.892;9.970;2023-03-01T09:59:44;18.33;;;12.80;;
35462;SDS011;21578;47.892;9.970;2023-03-01T10:04:41;17.87;;;12.60;;
35462;SDS011;21578;47.892;9.970;2023-03-01T10:09:33;26.03;;;14.27;;
35462;SDS011;21578;47.892;9.970;2023-03-01T10:14:27;20.57;;;13.90;;
35462;SDS011;21578;47.892;9.970;2023-03-01T10:19:20;32.57;;;18.57;;
35462;SDS011;21578;47.892;9.970;2023-03-01T10:24:10;33.33;;;17.60;;
35462;SDS011;21578;47.892;9.970;2023-03-01T10:29:01;21.90;;;14.83;;
35462;SDS011;21578;47.892;9.970;2023-03-01T10:33:51;25.67;;;16.53;;
35462;SDS011;21578;47.892;9.970;2023-03-01T10:38:47;27.33;;;16.13;;
35462;SDS011;21578;47.892;9.970;2023-03-01T10:43:42;27.37;;;13.23;;
35462;SDS011;21578;47.892;9.970;2023-03-01T10:48:31;20.87;;;13.93;;
35462;SDS011;21578;47.892;9.970;2023-03-01T10:53:23;17.13;;;12.03;;
35462;SDS011;21578;47.892;9.970;2023-03-01T10:58:17;19.33;;;11.60;;
35462;SDS011;21578;47.892;9.970;2023-03-01T11:03:10;18.67;;;12.27;;
35462;SDS011;21578;47.892;9.970;2023-03-01T11:07:59;15.53;;;10.93;;
35462;SDS011;21578;47.892;9.970;2023-03-01T11:12:49;20.87;;;15.73;;
35462;SDS011;21578;47.892;9.970;2023-03-01T11:17:37;19.40;;;13.20;;
35462;SDS011;21578;47.892;9.970;2023-03-01T11:22:24;18.30;;;11.23;;
35462;SDS011;21578;47.892;9.970;2023-03-01T11:27:16;18.33;;;11.07;;
35462;SDS011;21578;47.892;9.970;2023-03-01T11:32:08;18.07;;;12.67;;
35462;SDS011;21578;47.892;9.970;2023-03-01T11:36:58;16.80;;;11.97;;
35462;SDS011;21578;47.892;9.970;2023-03-01T11:41:48;17.83;;;12.27;;
35462;SDS011;21578;47.892;9.970;2023-03-01T11:46:47;38.53;;;26.63;;
35462;SDS011;21578;47.892;9.970;2023-03-01T11:51:44;21.83;;;15.13;;
35462;SDS011;21578;47.892;9.970;2023-03-01T11:56:40;19.37;;;12.63;;
35462;SDS011;21578;47.892;9.970;2023-03-01T12:01:36;23.30;;;13.07;;
35462;SDS011;21578;47.892;9.970;2023-03-01T12:06:35;22.40;;;13.90;;
35462;SDS011;21578;47.892;9.970;2023-03-01T12:16:44;18.73;;;12.87;;
35462;SDS011;21578;47.892;9.970;2023-03-01T12:21:58;22.93;;;15.20;;
35462;SDS011;21578;47.892;9.970;2023-03-01T12:26:58;16.87;;;12.00;;
35462;SDS011;21578;47.892;9.970;2023-03-01T12:32:01;24.83;;;14.27;;
35462;SDS011;21578;47.892;9.970;2023-03-01T12:37:27;17.50;;;12.27;;
35462;SDS011;21578;47.892;9.970;2023-03-01T12:42:21;18.90;;;12.90;;
35462;SDS011;21578;47.892;9.970;2023-03-01T12:47:16;23.17;;;12.87;;
35462;SDS011;21578;47.892;9.970;2023-03-01T12:52:13;18.67;;;12.77;;
35462;SDS011;21578;47.892;9.970;2023-03-01T12:57:09;15.47;;;11.13;;
35462;SDS011;21578;47.892;9.970;2023-03-01T13:02:03;20.90;;;12.87;;
35462;SDS011;21578;47.892;9.970;2023-03-01T13:07:03;26.77;;;16.40;;
35462;SDS011;21578;47.892;9.970;2023-03-01T13:17:41;21.07;;;14.53;;
35462;SDS011;21578;47.892;9.970;2023-03-01T13:22:31;22.63;;;14.70;;
35462;SDS011;21578;47.892;9.970;2023-03-01T13:27:21;25.17;;;14.90;;
35462;SDS011;21578;47.892;9.970;2023-03-01T13:32:22;19.20;;;14.13;;
35462;SDS011;21578;47.892;9.970;2023-03-01T13:37:29;21.30;;;14.23;;
35462;SDS011;21578;47.892;9.970;2023-03-01T13:47:38;21.00;;;13.67;;
35462;SDS011;21578;47.892;9.970;2023-03-01T13:52:31;20.13;;;13.77;;
35462;SDS011;21578;47.892;9.970;2023-03-01T13:57:26;19.83;;;14.40;;
35462;SDS011;21578;47.892;9.970;2023-03-01T14:02:18;22.53;;;14.40;;
35462;SDS011;21578;47.892;9.970;2023-03-01T14:07:10;21.30;;;14.60;;
35462;SDS011;21578;47.892;9.970;2023-03-01T14:12:22;23.03;;;14.03;;
35462;SDS011;21578;47.892;9.970;2023-03-01T14:22:42;20.57;;;13.43;;
35462;SDS011;21578;47.892;9.970;2023-03-01T14:27:33;19.30;;;13.33;;
35462;SDS011;21578;47.892;9.970;2023-03-01T14:32:25;21.40;;;14.57;;
35462;SDS011;21578;47.892;9.970;2023-03-01T14:37:18;19.53;;;13.60;;
35462;SDS011;21578;47.892;9.970;2023-03-01T14:42:08;21.40;;;14.10;;
35462;SDS011;21578;47.892;9.970;2023-03-01T14:46:55;18.90;;;12.97;;
35462;SDS011;21578;47.892;9.970;2023-03-01T14:51:51;23.40;;;14.47;;
35462;SDS011;21578;47.892;9.970;2023-03-01T14:56:44;21.40;;;14.43;;
35462;SDS011;21578;47.892;9.970;2023-03-01T15:01:33;19.77;;;13.67;;
35462;SDS011;21578;47.892;9.970;2023-03-01T15:06:21;23.40;;;14.77;;
35462;SDS011;21578;47.892;9.970;2023-03-01T15:11:17;18.93;;;14.10;;
35462;SDS011;21578;47.892;9.970;2023-03-01T15:16:08;20.20;;;13.27;;
35462;SDS011;21578;47.892;9.970;2023-03-01T15:21:06;20.03;;;13.47;;
35462;SDS011;21578;47.892;9.970;2023-03-01T15:25:55;23.37;;;14.07;;
35462;SDS011;21578;47.892;9.970;2023-03-01T15:30:42;20.63;;;14.30;;
35462;SDS011;21578;47.892;9.970;2023-03-01T15:35:33;21.33;;;13.60;;
35462;SDS011;21578;47.892;9.970;2023-03-01T15:40:28;18.43;;;12.90;;
35462;SDS011;21578;47.892;9.970;2023-03-01T15:45:21;20.63;;;13.97;;
35462;SDS011;21578;47.892;9.970;2023-03-01T15:50:15;22.10;;;15.10;;
35462;SDS011;21578;47.892;9.970;2023-03-01T15:55:06;23.23;;;15.17;;
35462;SDS011;21578;47.892;9.970;2023-03-01T16:00:03;38.20;;;26.17;;
35462;SDS011;21578;47.892;9.970;2023-03-01T16:04:56;26.73;;;17.70;;
35462;SDS011;21578;47.892;9.970;2023-03-01T16:09:43;44.87;;;26.73;;
35462;SDS011;21578;47.892;9.970;2023-03-01T16:14:30;23.23;;;16.23;;
35462;SDS011;21578;47.892;9.970;2023-03-01T16:19:18;36.90;;;23.90;;
35462;SDS011;21578;47.892;9.970;2023-03-01T16:24:05;28.83;;;18.77;;
35462;SDS011;21578;47.892;9.970;2023-03-01T16:28:54;28.13;;;18.37;;
35462;SDS011;21578;47.892;9.970;2023-03-01T16:33:41;25.90;;;17.50;;
35462;SDS011;21578;47.892;9.970;2023-03-01T16:38:35;25.67;;;16.80;;
35462;SDS011;21578;47.892;9.970;2023-03-01T16:43:23;23.07;;;15.53;;
35462;SDS011;21578;47.892;9.970;2023-03-01T16:48:10;22.87;;;16.57;;
35462;SDS011;21578;47.892;9.970;2023-03-01T16:52:58;21.83;;;14.63;;
35462;SDS011;21578;47.892;9.970;2023-03-01T16:57:46;22.73;;;15.47;;
35462;SDS011;21578;47.892;9.970;2023-03-01T17:02:33;20.07;;;14.13;;
35462;SDS011;21578;47.892;9.970;2023-03-01T17:07:20;21.33;;;14.33;;
35462;SDS011;21578;47.892;9.970;2023-03-01T17:12:07;21.60;;;15.00;;
35462;SDS011;21578;47.892;9.970;2023-03-01T17:16:56;20.67;;;13.90;;
35462;SDS011;21578;47.892;9.970;2023-03-01T17:21:43;25.57;;;15.70;;
35462;SDS011;21578;47.892;9.970;2023-03-01T17:26:30;27.30;;;15.90;;
35462;SDS011;21578;47.892;9.970;2023-03-01T17:31:17;67.47;;;34.33;;
35462;SDS011;21578;47.892;9.970;2023-03-01T17:36:06;72.17;;;35.23;;
35462;SDS011;21578;47.892;9.970;2023-03-01T17:40:53;49.60;;;32.33;;
35462;SDS011;21578;47.892;9.970;2023-03-01T17:45:40;37.07;;;20.83;;
35462;SDS011;21578;47.892;9.970;2023-03-01T17:50:28;37.27;;;22.80;;
35462;SDS011;21578;47.892;9.970;2023-03-01T17:55:17;22.83;;;15.10;;
35462;SDS011;21578;47.892;9.970;2023-03-01T18:00:04;23.73;;;15.20;;
35462;SDS011;21578;47.892;9.970;2023-03-01T18:04:55;25.07;;;16.43;;
35462;SDS011;21578;47.892;9.970;2023-03-01T18:09:43;21.93;;;16.43;;
35462;SDS011;21578;47.892;9.970;2023-03-01T18:14:31;22.13;;;16.00;;
35462;SDS011;21578;47.892;9.970;2023-03-01T18:19:18;27.50;;;17.50;;
35462;SDS011;21578;47.892;9.970;2023-03-01T18:24:06;25.93;;;16.23;;
35462;SDS011;21578;47.892;9.970;2023-03-01T18:28:53;23.90;;;15.70;;
35462;SDS011;21578;47.892;9.970;2023-03-01T18:33:43;21.47;;;15.23;;
35462;SDS011;21578;47.892;9.970;2023-03-01T18:38:30;24.13;;;16.40;;
35462;SDS011;21578;47.892;9.970;2023-03-01T18:43:18;22.63;;;14.87;;
35462;SDS011;21578;47.892;9.970;2023-03-01T18:48:05;22.87;;;15.30;;
35462;SDS011;21578;47.892;9.970;2023-03-01T18:52:53;20.07;;;14.13;;
35462;SDS011;21578;47.892;9.970;2023-03-01T18:57:40;19.63;;;14.27;;
35462;SDS011;21578;47.892;9.970;2023-03-01T19:02:27;22.33;;;14.80;;
35462;SDS011;21578;47.892;9.970;2023-03-01T19:07:14;23.33;;;15.40;;
35462;SDS011;21578;47.892;9.970;2023-03-01T19:12:02;20.23;;;13.60;;
35462;SDS011;21578;47.892;9.970;2023-03-01T19:16:50;20.00;;;13.80;;
35462;SDS011;21578;47.892;9.970;2023-03-01T19:21:37;21.30;;;14.27;;
35462;SDS011;21578;47.892;9.970;2023-03-01T19:26:24;22.63;;;14.57;;
35462;SDS011;21578;47.892;9.970;2023-03-01T19:31:15;20.97;;;14.77;;
35462;SDS011;21578;47.892;9.970;2023-03-01T19:36:03;25.63;;;17.13;;
35462;SDS011;21578;47.892;9.970;2023-03-01T19:40:50;24.07;;;15.37;;
35462;SDS011;21578;47.892;9.970;2023-03-01T19:45:37;26.13;;;17.70;;
35462;SDS011;21578;47.892;9.970;2023-03-01T19:50:26;36.70;;;21.57;;
35462;SDS011;21578;47.892;9.970;2023-03-01T19:55:13;30.67;;;19.70;;
35462;SDS011;21578;47.892;9.970;2023-03-01T20:00:00;46.10;;;28.57;;
35462;SDS011;21578;47.892;9.970;2023-03-01T20:04:47;31.10;;;22.43;;
35462;SDS011;21578;47.892;9.970;2023-03-01T20:09:35;23.77;;;15.83;;
35462;SDS011;21578;47.892;9.970;2023-03-01T20:14:22;22.83;;;16.10;;
35462;SDS011;21578;47.892;9.970;2023-03-01T20:19:09;23.43;;;15.23;;
35462;SDS011;21578;47.892;9.970;2023-03-01T20:23:55;33.07;;;18.93;;
35462;SDS011;21578;47.892;9.970;2023-03-01T20:28:44;25.30;;;16.40;;
35462;SDS011;21578;47.892;9.970;2023-03-01T20:33:31;26.53;;;17.23;;
35462;SDS011;21578;47.892;9.970;2023-03-01T20:38:18;25.47;;;16.30;;
35462;SDS011;21578;47.892;9.970;2023-03-01T20:43:05;35.50;;;19.53;;
35462;SDS011;21578;47.892;9.970;2023-03-01T20:47:53;28.87;;;18.30;;
35462;SDS011;21578;47.892;9.970;2023-03-01T20:52:40;32.43;;;19.37;;
35462;SDS011;21578;47.892;9.970;2023-03-01T20:57:27;28.20;;;17.23;;
35462;SDS011;21578;47.892;9.970;2023-03-01T21:02:14;31.27;;;17.87;;
35462;SDS011;21578;47.892;9.970;2023-03-01T21:07:02;30.50;;;17.47;;
35462;SDS011;21578;47.892;9.970;2023-03-01T21:11:49;30.97;;;18.57;;
35462;SDS011;21578;47.892;9.970;2023-03-01T21:16:36;26.57;;;17.30;;
35462;SDS011;21578;47.892;9.970;2023-03-01T21:21:23;23.60;;;16.67;;
35462;SDS011;21578;47.892;9.970;2023-03-01T21:26:12;25.93;;;16.20;;
35462;SDS011;21578;47.892;9.970;2023-03-01T21:31:01;24.70;;;15.50;;
35462;SDS011;21578;47.892;9.970;2023-03-01T21:35:49;23.67;;;15.70;;
35462;SDS011;21578;47.892;9.970;2023-03-01T21:40:36;25.70;;;16.27;;
35462;SDS011;21578;47.892;9.970;2023-03-01T21:45:24;21.50;;;15.40;;
35462;SDS011;21578;47.892;9.970;2023-03-01T21:50:11;21.97;;;14.87;;
35462;SDS011;21578;47.892;9.970;2023-03-01T21:54:58;23.60;;;15.53;;
35462;SDS011;21578;47.892;9.970;2023-03-01T21:59:47;24.47;;;16.17;;
35462;SDS011;21578;47.892;9.970;2023-03-01T22:04:35;22.87;;;15.30;;
35462;SDS011;21578;47.892;9.970;2023-03-01T22:09:22;23.77;;;16.00;;
35462;SDS011;21578;47.892;9.970;2023-03-01T22:14:10;22.33;;;15.57;;
35462;SDS011;21578;47.892;9.970;2023-03-01T22:18:57;24.73;;;16.30;;
35462;SDS011;21578;47.892;9.970;2023-03-01T22:23:46;23.83;;;16.17;;
35462;SDS011;21578;47.892;9.970;2023-03-01T22:28:33;22.00;;;15.63;;
35462;SDS011;21578;47.892;9.970;2023-03-01T22:33:20;24.83;;;16.30;;
35462;SDS011;21578;47.892;9.970;2023-03-01T22:38:07;24.97;;;16.37;;
35462;SDS011;21578;47.892;9.970;2023-03-01T22:42:56;25.77;;;16.00;;
35462;SDS011;21578;47.892;9.970;2023-03-01T22:47:42;25.60;;;16.50;;
35462;SDS011;21578;47.892;9.970;2023-03-01T22:52:29;23.43;;;15.57;;
35462;SDS011;21578;47.892;9.970;2023-03-01T22:57:16;23.17;;;15.27;;
35462;SDS011;21578;47.892;9.970;2023-03-01T23:02:04;24.37;;;15.43;;
35462;SDS011;21578;47.892;9.970;2023-03-01T23:06:51;25.03;;;15.23;;
35462;SDS011;21578;47.892;9.970;2023-03-01T23:11:38;26.27;;;16.60;;
35462;SDS011;21578;47.892;9.970;2023-03-01T23:16:25;24.10;;;15.70;;
35462;SDS011;21578;47.892;9.970;2023-03-01T23:21:14;25.70;;;16.90;;
35462;SDS011;21578;47.892;9.970;2023-03-01T23:26:04;26.60;;;16.20;;
35462;SDS011;21578;47.892;9.970;2023-03-01T23:30:52;29.40;;;18.17;;
35462;SDS011;21578;47.892;9.970;2023-03-01T23:35:40;27.63;;;17.23;;
35462;SDS011;21578;47.892;9.970;2023-03-01T23:40:28;24.87;;;16.27;;
35462;SDS011;21578;47.892;9.970;2023-03-01T23:45:15;25.80;;;16.20;;
35462;SDS011;21578;47.892;9.970;2023-03-01T23:50:02;26.57;;;17.50;;
35462;SDS011;21578;47.892;9.970;2023-03-01T23:54:49;26.10;;;17.63;;
35462;SDS011;21578;47.892;9.970;2023-03-01T23:59:38;27.90;;;19.23;;
